Charles Clark

Olheiro - Charlton Athletic
20 Fev 2028
Domingo
Processo

Personalidade

Adaptabilidade (9) Ambição (3) Controvérsia (15) Lealdade (1) Pressão (16) Profissionalismo (1) Espírito Esportivo (6) Temperamento (10)

Perfil

Estilo de Treinamento Democrático
Licença Continental C
Determinação 4
Gestão de Pessoas 7
Motivação 4
Disciplina 9
Satisfação no Trabalho
100%
Fadiga
0%
Função Olheiro
Salário 54.8K p/s
Contrato 14.03.2028

Desempenho

Comportamento Bom
Eficácia do Treinamento
41%
Desenvolvimento do Jogador
30%
Prevenção de Lesões
30%
Implementação Tática
55%

Eventos Recentes

Recomendou um alvo de transferência agora
Recomendou um alvo de transferência agora
Recomendou um alvo de transferência agora
Recomendou um alvo de transferência agora
Recomendou um alvo de transferência agora
Negociação de contrato iniciada agora
Negociação de contrato iniciada agora
Negociação de contrato iniciada agora

Monitorando agora

178
Jogador Clube Status Habilidade Confiança Observado Última observação Último voto
Jarvis Thornton Sheffield Wednesday Relatório pronto 114 / 108 76% 1 31.01.2028 -
Santiago Hezze Chaves Ativo 132 / 133 62% 1 01.01.2028 Aprovar
Aurélien Scheidler Tondela Ativo 119 / 119 67% 1 01.01.2028 Aprovar
Jefry Zapata Danubio Ativo 118 / 118 67% 1 01.01.2028 Aprovar
Jim Thwaites Manchester United Perdido 110 / 124 76% 1 01.01.2028 -
Dion Beljo Standard Liege Ativo 131 / 132 66% 1 01.06.2027 Aprovar
Mandla Erasmus SuperSport United Ativo 115 / 129 40% 5 30.05.2027 -
Nicolas Madsen Queens Park Rangers Ativo 138 / 123 40% 1 30.05.2027 -
Romano Schmid Frosinone Ativo 147 / 139 40% 1 30.05.2027 -
Kwadwo Baah Watford Ativo 135 / 121 40% 4 29.05.2027 -
Shea Charles Southampton Ativo 142 / 137 40% 1 29.05.2027 -
Tyler Goodrham Oxford United Ativo 129 / 123 40% 1 29.05.2027 -
Derensili Sanches Fernandes Huddersfield Town Ativo 128 / 124 40% 3 27.05.2027 -
Alex Robertson Cardiff City Ativo 123 / 122 40% 1 27.05.2027 -
Cian Ashford Cardiff City Ativo 117 / 120 40% 3 26.05.2027 -
Armando Dobra Chesterfield Ativo 111 / 105 40% 1 26.05.2027 -
Borna Knezović Casarano Ativo 100 / 107 40% 4 25.05.2027 -
Ronald Swansea City Ativo 126 / 125 40% 1 25.05.2027 -
Paris Maghoma Norwich City Ativo 130 / 125 40% 1 25.05.2027 -
Declan Frith Peterborough United Ativo 109 / 115 40% 1 22.05.2027 -
Florentino Luís Ipswich Town Ativo 134 / 137 40% 4 21.05.2027 -
Mduduzi Shabalala Kaizer Chiefs Ativo 120 / 117 40% 4 21.05.2027 -
Ilyas Ansah Hull City Ativo 128 / 129 40% 2 21.05.2027 -
Isaiah Jones Luton Town Ativo 127 / 125 40% 3 20.05.2027 -
Zeidane Inoussa Swansea City Ativo 128 / 120 40% 2 20.05.2027 -
Antonio Galeano Remo Stars Ativo 127 / 131 40% 1 20.05.2027 -
Harry Clarke Preston Ativo 136 / 133 40% 1 19.05.2027 -
Jason Knight Bristol City Ativo 135 / 129 40% 1 18.05.2027 -
Lorenzo De Leo Renate Ativo 95 / 109 40% 3 17.05.2027 -
Baba N'Diaye Chelyabinsk Ativo 88 / 87 40% 1 17.05.2027 -
Finn Azaz Southampton Ativo 133 / 134 40% 4 14.05.2027 -
Bali Mumba Huddersfield Town Ativo 124 / 112 40% 1 14.05.2027 -
Nicolás Azambuja Cádiz Ativo 122 / 132 40% 1 14.05.2027 -
Jean Galindo Imotski Ativo 79 / 92 40% 1 13.05.2027 -
Miloš Jovičić Zabbar St. Patrick Ativo 87 / 92 40% 1 13.05.2027 -
Lwanda Mbanjwa Maritzburg United Ativo 101 / 105 40% 3 12.05.2027 -
Morgan Whittaker Middlesbrough Ativo 132 / 125 40% 3 11.05.2027 -
Simon Ramabu Polokwane City Ativo 109 / 98 40% 3 11.05.2027 -
Ali Ahmed Norwich City Ativo 126 / 116 40% 2 11.05.2027 -
Stanley Mills Oxford United Ativo 120 / 127 40% 2 09.05.2027 -
Aidan Dausch AC Ajaccio Ativo 77 / 87 40% 1 09.05.2027 -
Baylee Dipepa Norwich City Ativo 104 / 114 40% 1 09.05.2027 -
Luke Baartman ES Mostaganem Ativo 99 / 108 40% 2 08.05.2027 -
Amaury Morales Pumas UNAM Ativo 107 / 124 40% 1 08.05.2027 -
Darlvin Yeboah Bechem United Ativo 73 / 76 40% 2 07.05.2027 -
Giorgi Chakvetadze Watford Ativo 123 / 122 40% 2 02.05.2027 -
Richard Koné Queens Park Rangers Ativo 123 / 129 40% 1 01.05.2027 -
Markus Jensen Nacional Ativo 105 / 108 40% 1 01.05.2027 -
Oswin Appollis Orlando Pirates Ativo 116 / 113 40% 3 29.04.2027 -
Tommy Conway Middlesbrough Ativo 130 / 128 40% 3 28.04.2027 -
Dávid Strelec Middlesbrough Ativo 132 / 139 40% 3 28.04.2027 -
Sam Bell Bristol City Ativo 121 / 120 40% 1 27.04.2027 -
Ollie Tanner Cardiff City Ativo 118 / 114 40% 3 26.04.2027 -
Tomáš Rigo Stoke City Ativo 125 / 134 40% 2 26.04.2027 -
Daniel Kyerewaa Reading Ativo 122 / 107 40% 1 24.04.2027 -
Kasey McAteer Ipswich Town Ativo 135 / 128 40% 1 24.04.2027 -
Williams Manyama SuperSport United Ativo 120 / 112 40% 5 23.04.2027 -
Tshepang Moremi Orlando Pirates Ativo 121 / 109 40% 4 23.04.2027 -
Nicolas Verkooijen PSV Ativo 109 / 121 40% 2 23.04.2027 -
Jack Diamond Stockport County Ativo 115 / 114 40% 1 23.04.2027 -
Kabiru Abdullahi Barau Ativo 93 / 96 40% 1 23.04.2027 -
Isaac Price West Bromwich Albion Ativo 122 / 123 40% 1 20.04.2027 -
Xavier Amaechi Plymouth Argyle Ativo 111 / 113 40% 1 18.04.2027 -
Max Bird Birmingham Ativo 130 / 128 40% 1 18.04.2027 -
Bongani Modiba Black Aces Ativo 127 / 114 40% 3 17.04.2027 -
Tyrese Campbell Sheffield United Ativo 126 / 133 40% 1 16.04.2027 -
Andre Brooks Sheffield United Ativo 129 / 130 40% 1 16.04.2027 -
Kelvin Akinmola Bendel Insurance Ativo 81 / 90 40% 1 16.04.2027 -
Kirill Cheburakov Rostov Ativo 76 / 86 40% 1 16.04.2027 -
Dramane Kamagaté USM Alger Ativo 114 / 107 40% 1 16.04.2027 -
Ben Ahmed Kohili Paradou Ativo 112 / 114 40% 2 14.04.2027 -
David Turnbull Cardiff City Ativo 124 / 123 40% 1 12.04.2027 -
Jack McGlynn Stoke City Ativo 125 / 137 40% 1 11.04.2027 -
Welington Southampton Ativo 139 / 121 40% 2 09.04.2027 -
Joseph Hungbo Wigan Athletic Ativo 118 / 112 40% 2 09.04.2027 -
Derry Murkin Derby County Ativo 126 / 134 40% 1 08.04.2027 -
Tom Fellows Southampton Ativo 128 / 131 40% 2 04.04.2027 -
Jack Rudoni Coventry City Ativo 136 / 131 40% 1 04.04.2027 -
Caolan Boyd-Munce Wycombe Wanderers Ativo 126 / 114 40% 1 02.04.2027 -
Roberto Iliev Slavia Sofia Ativo 96 / 104 40% 1 02.04.2027 -
Anestis Mythou PAOK Ativo 90 / 102 40% 2 30.03.2027 -
Gustavo Ferreira Benfica Ativo 88 / 86 40% 2 28.03.2027 -
Adama Goïta Remo Stars Ativo 85 / 93 40% 2 28.03.2027 -
Ethan Williams Peterborough United Ativo 120 / 125 40% 1 28.03.2027 -
Thalente Mbatha Orlando Pirates Ativo 115 / 106 40% 2 26.03.2027 -
Will Lankshear Middlesbrough Ativo 129 / 119 40% 3 25.03.2027 -
Jacques Ekomié Wrexham Ativo 131 / 124 40% 1 25.03.2027 -
Mikey Johnston West Bromwich Albion Ativo 115 / 128 40% 1 22.03.2027 -
David Kalokoh Ajax Ativo 112 / 120 40% 1 19.03.2027 -
Agustín Fernández NK Zavrc Ativo 86 / 95 40% 1 16.03.2027 -
Rocco Vata Watford Ativo 115 / 118 40% 1 16.03.2027 -
Ognjen Bondžulić Mladost Lucani Ativo 104 / 108 40% 2 15.03.2027 -
Fletcher Holman Swindon Town Ativo 82 / 93 40% 2 14.03.2027 -
Dom Ballard Leyton Orient Ativo 120 / 127 40% 3 12.03.2027 -
Víctor Guzmán Sporting CP Ativo 100 / 103 40% 2 11.03.2027 -
Thomas Waddingham Portsmouth Ativo 107 / 114 40% 1 05.03.2027 -
Hazeem Bakre Crawley Town Ativo 85 / 87 40% 1 02.03.2027 -
Riley Owen Trento Ativo 100 / 101 40% 1 08.02.2027 -
Davide Bartesaghi AC Milan Ativo 128 / 140 40% 1 08.02.2027 -
Felix Afful Liberty Professionals Ativo 88 / 84 40% 1 07.02.2027 -
Tiago Freitas Benfica Ativo 109 / 107 40% 1 07.02.2027 -
Dean Huijsen Villarreal Ativo 137 / 149 40% 1 07.02.2027 -
Keagan Tau Ajax Cape Town Ativo 82 / 106 40% 1 06.02.2027 -
Keagan Phiri Platinum Stars Ativo 107 / 93 40% 1 06.02.2027 -
Zane Albarus Cambridge United Ativo 91 / 101 40% 1 06.02.2027 -
Leandro Martins Benfica Ativo 87 / 96 40% 1 05.02.2027 -
Joel McGregor Swindon Town Ativo 85 / 99 40% 1 05.02.2027 -
Darryl Bakola Padova Ativo 110 / 115 40% 1 01.02.2027 -
Jan Bürger Gillingham Ativo 106 / 117 40% 1 01.02.2027 -
Emmanuel Mathias Ikorodu City Ativo 89 / 100 40% 1 01.02.2027 -
Mohammed Yahaya Great Olympics Ativo 82 / 94 40% 2 30.12.2026 -
Niall Ennis Blackpool Ativo 118 / 115 40% 1 30.12.2026 -
Ruben van Bommel Ferencvaros Ativo 134 / 135 40% 2 28.12.2026 -
Toby Collyer West Bromwich Albion Ativo 125 / 128 40% 1 28.12.2026 -
Leonardo Campana New England Revolution Ativo 117 / 116 40% 1 27.12.2026 -
Siyanda Msani University of Pretoria Ativo 98 / 109 40% 1 24.12.2026 -
Kutlwano Letlhaku Ajax Cape Town Ativo 118 / 129 40% 1 24.12.2026 -
Tyreece Simpson Maritzburg United Ativo 92 / 92 40% 2 22.12.2026 -
Tomás González Piast Ativo 119 / 120 40% 1 22.12.2026 -
Hakim Sulemana Medeama Ativo 94 / 110 40% 1 21.12.2026 -
Bénie Traoré New York City Ativo 127 / 136 40% 3 19.12.2026 -
Josh Sargent Toronto FC Ativo 129 / 138 40% 1 18.12.2026 -
Itumeleng Zungu Free State Stars Ativo 95 / 100 40% 1 17.12.2026 -
Kévin Denkey FC Cincinnati Ativo 136 / 127 40% 2 14.12.2026 -
Rhian Brewster Oxford United Ativo 122 / 111 40% 1 14.12.2026 -
Themba Ngcobo SuperSport United Ativo 129 / 113 40% 3 13.12.2026 -
Sagir Arce Paralimni Ativo 91 / 100 40% 2 13.12.2026 -
Tom Cannon Sheffield United Ativo 120 / 123 40% 1 12.12.2026 -
Jesus Ferreira Seattle Sounders Ativo 120 / 122 40% 2 09.12.2026 -
Cheikh Sabaly Vancouver Whitecaps Ativo 128 / 119 40% 4 05.12.2026 -
Giacomo Raspadori Atalanta Ativo 146 / 140 40% 2 05.12.2026 -
Cameron Archer Southampton Ativo 120 / 118 40% 1 04.12.2026 -
Theo Corbeanu Toronto FC Ativo 115 / 119 40% 1 02.12.2026 -
Bismark Asante Ashanti Gold Ativo 87 / 99 40% 2 01.12.2026 -
Kwame Opoku Asante Kotoko Ativo 107 / 99 40% 1 01.12.2026 -
Carlos Vicente Birmingham Ativo 146 / 142 40% 2 24.11.2026 -
Tomás Chancalay Minnesota United FC Ativo 131 / 117 40% 1 24.11.2026 -
Bongani Mothiba SuperSport United Ativo 78 / 78 40% 1 22.11.2026 -
Petar Stanić Ludogorets Ativo 133 / 131 40% 1 21.11.2026 -
Kenan Dervišagić Floriana Ativo 101 / 104 40% 2 20.11.2026 -
Sota Kitano Luzern Ativo 129 / 120 40% 2 20.11.2026 -
Archie Goodwin Charlotte Football Club Ativo 116 / 114 40% 1 18.11.2026 -
Robert Mizo Ashanti Gold Ativo 113 / 106 40% 1 17.11.2026 -
Jonathan Gyan Liberty Professionals Ativo 90 / 91 40% 1 17.11.2026 -
Aune Heggebø West Bromwich Albion Ativo 133 / 121 40% 1 15.11.2026 -
Joe Gelhardt Hull City Ativo 134 / 125 40% 1 15.11.2026 -
Ramiro Ruiz Rodríguez Atlético Tucumán Ativo 122 / 114 40% 1 09.11.2026 -
Mandla Mahlangu Ajax Cape Town Ativo 116 / 118 40% 1 09.11.2026 -
Matheus Nascimento FC Dallas Ativo 125 / 127 40% 1 09.11.2026 -
Matías Fernández Independiente Rivadavia Ativo 127 / 118 40% 1 08.11.2026 -
Rafael Navarro St. Louis CITY SC Ativo 116 / 121 40% 4 05.11.2026 -
Zeki Amdouni Burnley Ativo 139 / 124 40% 2 05.11.2026 -
Amin Boudri Los Angeles Football Club Ativo 117 / 136 40% 2 03.11.2026 -
Dean Erasmus Platinum Stars Ativo 96 / 85 40% 2 03.11.2026 -
Ammar Ramadan DAC Dunajska Streda Ativo 122 / 117 40% 1 03.11.2026 -
Wessam Abou Ali Columbus Crew Ativo 129 / 122 40% 2 02.11.2026 -
Martín Ojeda Orlando City Ativo 128 / 126 40% 3 02.11.2026 -
Maren Haile-Selassie Chicago Fire Ativo 127 / 115 40% 1 31.10.2026 -
Alan Lescano Argentinos Juniors Ativo 125 / 137 40% 1 31.10.2026 -
Tashreeq Matthews Mamelodi Sundowns Ativo 114 / 121 40% 1 30.10.2026 -
Manfred Ugalde Spartak Moscow Ativo 134 / 128 40% 1 30.10.2026 -
Victor Olatunji Real Salt Lake Ativo 121 / 127 40% 1 29.10.2026 -
Antony Portland Timbers Ativo 127 / 140 40% 2 28.10.2026 -
João Peglow DC United Ativo 121 / 114 40% 1 26.10.2026 -
Alexis Cuello San Lorenzo Ativo 126 / 120 40% 2 23.10.2026 -
Georginio Rutter Brighton Ativo 150 / 155 40% 1 23.10.2026 -
Alex Luna Instituto Ativo 133 / 132 40% 1 22.10.2026 -
Dagur Dan Þórhallsson CF Montreal Ativo 123 / 122 40% 1 22.10.2026 -
Sean Zawadzki Columbus Crew Ativo 111 / 123 40% 1 21.10.2026 -
Jahkeele Marshall-Rutty New York Red Bulls Ativo 123 / 120 40% 1 21.10.2026 -
Hannes Wolf New York City Ativo 119 / 112 40% 1 20.10.2026 -
Nathan Ordaz Metalist Ativo 105 / 116 40% 1 18.10.2026 -
Andrés Herrera Columbus Crew Ativo 124 / 122 40% 1 14.10.2026 -
Telasco Segovia Inter Miami CF Ativo 127 / 140 40% 1 13.10.2026 -
Adnan Courtois KV Oostende Ativo 138 / 129 40% 2 12.10.2026 -
Iván Angulo Orlando City Ativo 134 / 137 40% 1 12.10.2026 -
Nicolás Cordero Aldosivi Ativo 115 / 120 40% 1 08.10.2026 -
Kian Spence Rotherham United Ativo 106 / 113 72% 1 24.08.2026 Aprovar